sensor_id;sensor_type;location;lat;lon;timestamp;pressure;altitude;pressure_sealevel;temperature;humidity
32181;BME280;19172;51.504;3.894;2022-12-07T00:01:43;101834.56;;;13.67;78.91
32181;BME280;19172;51.504;3.894;2022-12-07T00:04:14;101831.09;;;13.87;78.82
32181;BME280;19172;51.504;3.894;2022-12-07T00:06:51;101843.66;;;14.22;77.51
32181;BME280;19172;51.504;3.894;2022-12-07T00:09:19;101836.50;;;14.11;76.64
32181;BME280;19172;51.504;3.894;2022-12-07T00:11:50;101844.28;;;13.62;75.73
32181;BME280;19172;51.504;3.894;2022-12-07T00:14:19;101849.75;;;12.75;76.45
32181;BME280;19172;51.504;3.894;2022-12-07T00:16:49;101845.78;;;13.25;78.63
32181;BME280;19172;51.504;3.894;2022-12-07T00:19:17;101847.50;;;13.16;79.01
32181;BME280;19172;51.504;3.894;2022-12-07T00:21:45;101845.69;;;13.10;80.16
32181;BME280;19172;51.504;3.894;2022-12-07T00:24:13;101835.19;;;13.24;80.15
32181;BME280;19172;51.504;3.894;2022-12-07T00:26:41;101831.78;;;13.46;80.96
32181;BME280;19172;51.504;3.894;2022-12-07T00:29:18;101839.81;;;13.60;79.89
32181;BME280;19172;51.504;3.894;2022-12-07T00:31:47;101840.69;;;13.56;78.86
32181;BME280;19172;51.504;3.894;2022-12-07T00:34:18;101838.03;;;13.57;77.81
32181;BME280;19172;51.504;3.894;2022-12-07T00:36:47;101833.59;;;13.52;77.43
32181;BME280;19172;51.504;3.894;2022-12-07T00:39:15;101838.13;;;13.74;76.89
32181;BME280;19172;51.504;3.894;2022-12-07T00:41:43;101839.03;;;13.77;77.22
32181;BME280;19172;51.504;3.894;2022-12-07T00:44:11;101843.22;;;13.38;76.59
32181;BME280;19172;51.504;3.894;2022-12-07T00:46:39;101843.16;;;13.29;77.14
32181;BME280;19172;51.504;3.894;2022-12-07T00:49:07;101837.63;;;13.06;76.93
32181;BME280;19172;51.504;3.894;2022-12-07T00:51:35;101834.16;;;13.08;77.27
32181;BME280;19172;51.504;3.894;2022-12-07T00:54:03;101832.34;;;13.04;78.04
32181;BME280;19172;51.504;3.894;2022-12-07T00:56:30;101832.59;;;13.33;77.62
32181;BME280;19172;51.504;3.894;2022-12-07T00:59:01;101823.72;;;13.37;77.50
32181;BME280;19172;51.504;3.894;2022-12-07T01:01:32;101835.25;;;13.36;78.11
32181;BME280;19172;51.504;3.894;2022-12-07T01:04:01;101835.38;;;13.57;77.47
32181;BME280;19172;51.504;3.894;2022-12-07T01:06:30;101829.97;;;13.41;76.97
32181;BME280;19172;51.504;3.894;2022-12-07T01:08:58;101831.88;;;13.64;77.11
32181;BME280;19172;51.504;3.894;2022-12-07T01:11:28;101819.47;;;13.63;77.08
32181;BME280;19172;51.504;3.894;2022-12-07T01:13:58;101819.56;;;13.80;77.23
32181;BME280;19172;51.504;3.894;2022-12-07T01:16:28;101821.34;;;13.78;76.75
32181;BME280;19172;51.504;3.894;2022-12-07T01:18:58;101823.13;;;13.84;76.75
32181;BME280;19172;51.504;3.894;2022-12-07T01:21:30;101821.34;;;13.78;76.23
32181;BME280;19172;51.504;3.894;2022-12-07T01:24:03;101822.28;;;13.97;76.16
32181;BME280;19172;51.504;3.894;2022-12-07T01:26:31;101827.56;;;13.86;75.47
32181;BME280;19172;51.504;3.894;2022-12-07T01:28:59;101828.41;;;13.74;75.02
32181;BME280;19172;51.504;3.894;2022-12-07T01:31:29;101834.47;;;13.57;74.84
32181;BME280;19172;51.504;3.894;2022-12-07T01:33:59;101832.41;;;13.10;76.08
32181;BME280;19172;51.504;3.894;2022-12-07T01:36:34;101842.47;;;13.55;76.32
32181;BME280;19172;51.504;3.894;2022-12-07T01:39:05;101846.00;;;13.54;76.11
32181;BME280;19172;51.504;3.894;2022-12-07T01:41:36;101842.50;;;13.61;76.25
32181;BME280;19172;51.504;3.894;2022-12-07T01:46:39;101846.31;;;12.82;76.55
32181;BME280;19172;51.504;3.894;2022-12-07T01:49:14;101836.69;;;12.95;78.60
32181;BME280;19172;51.504;3.894;2022-12-07T01:51:46;101832.16;;;12.85;78.48
32181;BME280;19172;51.504;3.894;2022-12-07T01:54:16;101827.94;;;13.08;79.43
32181;BME280;19172;51.504;3.894;2022-12-07T01:56:51;101818.31;;;13.20;80.02
32181;BME280;19172;51.504;3.894;2022-12-07T01:59:23;101816.69;;;13.39;80.16
32181;BME280;19172;51.504;3.894;2022-12-07T02:01:54;101813.22;;;13.52;79.73
32181;BME280;19172;51.504;3.894;2022-12-07T02:04:23;101816.84;;;13.65;79.58
32181;BME280;19172;51.504;3.894;2022-12-07T02:06:52;101816.00;;;13.76;78.82
32181;BME280;19172;51.504;3.894;2022-12-07T02:09:21;101813.38;;;13.84;77.93
32181;BME280;19172;51.504;3.894;2022-12-07T02:11:50;101825.84;;;14.02;77.14
32181;BME280;19172;51.504;3.894;2022-12-07T02:14:18;101816.91;;;13.83;75.44
32181;BME280;19172;51.504;3.894;2022-12-07T02:28:22;101813.34;;;13.78;73.90
32181;BME280;19172;51.504;3.894;2022-12-07T02:30:55;101815.94;;;13.66;74.21
32181;BME280;19172;51.504;3.894;2022-12-07T02:33:33;101818.66;;;13.76;73.81
32181;BME280;19172;51.504;3.894;2022-12-07T02:36:12;101830.09;;;13.60;73.93
32181;BME280;19172;51.504;3.894;2022-12-07T02:39:11;101825.56;;;13.43;73.58
32181;BME280;19172;51.504;3.894;2022-12-07T02:41:51;101821.06;;;13.37;73.65
32181;BME280;19172;51.504;3.894;2022-12-07T02:44:24;101814.06;;;13.48;73.25
32181;BME280;19172;51.504;3.894;2022-12-07T02:47:04;101829.16;;;13.54;73.33
32181;BME280;19172;51.504;3.894;2022-12-07T02:49:36;101824.72;;;13.51;73.03
32181;BME280;19172;51.504;3.894;2022-12-07T02:52:05;101819.41;;;13.54;73.34
32181;BME280;19172;51.504;3.894;2022-12-07T02:54:33;101821.84;;;13.16;73.19
32181;BME280;19172;51.504;3.894;2022-12-07T03:00:18;101816.69;;;13.39;73.69
32181;BME280;19172;51.504;3.894;2022-12-07T03:08:50;101816.72;;;13.50;73.61
32181;BME280;19172;51.504;3.894;2022-12-07T03:11:53;101819.38;;;13.45;72.84
32181;BME280;19172;51.504;3.894;2022-12-07T03:14:26;101811.38;;;13.44;71.79
32181;BME280;19172;51.504;3.894;2022-12-07T03:17:13;101804.25;;;13.34;72.12
32181;BME280;19172;51.504;3.894;2022-12-07T03:19:45;101804.19;;;13.27;71.30
32181;BME280;19172;51.504;3.894;2022-12-07T03:22:15;101806.81;;;13.24;71.59
32181;BME280;19172;51.504;3.894;2022-12-07T03:24:53;101802.34;;;13.14;70.98
32181;BME280;19172;51.504;3.894;2022-12-07T03:27:31;101805.09;;;13.31;71.96
32181;BME280;19172;51.504;3.894;2022-12-07T03:30:17;101813.13;;;13.40;70.58
32181;BME280;19172;51.504;3.894;2022-12-07T03:32:57;101804.75;;;12.86;70.69
32181;BME280;19172;51.504;3.894;2022-12-07T03:35:45;101803.66;;;12.64;70.92
32181;BME280;19172;51.504;3.894;2022-12-07T03:41:00;101805.19;;;12.39;71.78
32181;BME280;19172;51.504;3.894;2022-12-07T03:43:30;101807.19;;;12.60;73.63
32181;BME280;19172;51.504;3.894;2022-12-07T03:48:54;101800.09;;;12.62;74.10
32181;BME280;19172;51.504;3.894;2022-12-07T03:52:06;101800.31;;;12.89;75.07
32181;BME280;19172;51.504;3.894;2022-12-07T03:54:54;101811.00;;;12.94;75.23
32181;BME280;19172;51.504;3.894;2022-12-07T03:57:26;101808.94;;;12.59;73.91
32181;BME280;19172;51.504;3.894;2022-12-07T03:59:57;101808.97;;;12.65;74.23
32181;BME280;19172;51.504;3.894;2022-12-07T04:02:27;101804.25;;;12.34;74.15
32181;BME280;19172;51.504;3.894;2022-12-07T04:04:56;101806.16;;;12.49;76.00
32181;BME280;19172;51.504;3.894;2022-12-07T04:07:24;101804.41;;;12.49;76.28
32181;BME280;19172;51.504;3.894;2022-12-07T04:09:52;101788.66;;;12.66;77.83
32181;BME280;19172;51.504;3.894;2022-12-07T04:12:23;101778.22;;;12.89;76.73
32181;BME280;19172;51.504;3.894;2022-12-07T04:14:51;101788.91;;;12.98;77.42
32181;BME280;19172;51.504;3.894;2022-12-07T04:17:18;101788.97;;;13.07;76.67
32181;BME280;19172;51.504;3.894;2022-12-07T04:19:46;101787.28;;;13.13;77.09
32181;BME280;19172;51.504;3.894;2022-12-07T04:22:14;101782.88;;;13.18;76.72
32181;BME280;19172;51.504;3.894;2022-12-07T04:24:42;101778.56;;;13.34;76.44
32181;BME280;19172;51.504;3.894;2022-12-07T04:27:09;101780.34;;;13.38;76.92
32181;BME280;19172;51.504;3.894;2022-12-07T04:29:37;101775.97;;;13.43;75.59
32181;BME280;19172;51.504;3.894;2022-12-07T04:32:05;101774.19;;;13.47;75.42
32181;BME280;19172;51.504;3.894;2022-12-07T04:34:33;101779.53;;;13.50;75.05
32181;BME280;19172;51.504;3.894;2022-12-07T04:37:00;101768.88;;;13.47;75.13
32181;BME280;19172;51.504;3.894;2022-12-07T04:39:30;101773.31;;;13.43;74.16
32181;BME280;19172;51.504;3.894;2022-12-07T04:42:00;101769.75;;;13.41;73.91
32181;BME280;19172;51.504;3.894;2022-12-07T04:44:29;101771.53;;;13.42;73.41
32181;BME280;19172;51.504;3.894;2022-12-07T04:46:57;101772.31;;;13.31;72.53
32181;BME280;19172;51.504;3.894;2022-12-07T04:49:25;101781.19;;;13.27;72.55
32181;BME280;19172;51.504;3.894;2022-12-07T04:51:53;101787.38;;;13.24;72.29
32181;BME280;19172;51.504;3.894;2022-12-07T04:54:20;101782.97;;;13.29;72.98
32181;BME280;19172;51.504;3.894;2022-12-07T04:56:48;101782.94;;;13.31;72.72
32181;BME280;19172;51.504;3.894;2022-12-07T04:59:16;101782.88;;;13.17;73.06
32181;BME280;19172;51.504;3.894;2022-12-07T05:01:44;101789.09;;;13.22;72.50
32181;BME280;19172;51.504;3.894;2022-12-07T05:04:12;101781.19;;;13.28;73.36
32181;BME280;19172;51.504;3.894;2022-12-07T05:06:40;101781.66;;;12.76;72.07
32181;BME280;19172;51.504;3.894;2022-12-07T05:09:08;101786.06;;;12.77;72.36
32181;BME280;19172;51.504;3.894;2022-12-07T05:11:36;101779.78;;;12.62;73.37
32181;BME280;19172;51.504;3.894;2022-12-07T05:14:11;101775.34;;;12.60;74.43
32181;BME280;19172;51.504;3.894;2022-12-07T05:16:40;101778.06;;;12.73;73.56
32181;BME280;19172;51.504;3.894;2022-12-07T05:19:08;101775.56;;;12.86;74.54
32181;BME280;19172;51.504;3.894;2022-12-07T05:21:37;101778.19;;;12.83;74.52
32181;BME280;19172;51.504;3.894;2022-12-07T05:24:07;101777.31;;;12.85;74.01
32181;BME280;19172;51.504;3.894;2022-12-07T05:26:35;101773.84;;;12.95;73.76
32181;BME280;19172;51.504;3.894;2022-12-07T05:29:04;101781.78;;;12.94;73.76
32181;BME280;19172;51.504;3.894;2022-12-07T05:31:32;101788.88;;;12.92;73.92
32181;BME280;19172;51.504;3.894;2022-12-07T05:34:00;101791.59;;;13.04;74.12
32181;BME280;19172;51.504;3.894;2022-12-07T05:36:28;101792.22;;;12.69;74.51
32181;BME280;19172;51.504;3.894;2022-12-07T05:38:56;101787.50;;;12.41;73.99
32181;BME280;19172;51.504;3.894;2022-12-07T05:41:24;101779.56;;;12.41;75.82
32181;BME280;19172;51.504;3.894;2022-12-07T05:44:10;101777.94;;;12.55;76.77
32181;BME280;19172;51.504;3.894;2022-12-07T05:46:38;101772.66;;;12.58;77.14
32181;BME280;19172;51.504;3.894;2022-12-07T05:49:06;101763.88;;;12.65;77.42
32181;BME280;19172;51.504;3.894;2022-12-07T05:51:33;101756.84;;;12.72;76.92
32181;BME280;19172;51.504;3.894;2022-12-07T05:54:01;101755.13;;;12.76;77.07
32181;BME280;19172;51.504;3.894;2022-12-07T05:56:29;101753.41;;;12.85;76.81
32181;BME280;19172;51.504;3.894;2022-12-07T05:58:57;101751.69;;;12.89;76.62
32181;BME280;19172;51.504;3.894;2022-12-07T06:01:43;101752.59;;;12.92;74.93
32181;BME280;19172;51.504;3.894;2022-12-07T06:04:11;101755.25;;;12.97;74.58
32181;BME280;19172;51.504;3.894;2022-12-07T06:06:38;101763.28;;;13.03;74.32
32181;BME280;19172;51.504;3.894;2022-12-07T06:09:06;101761.38;;;12.87;73.33
32181;BME280;19172;51.504;3.894;2022-12-07T06:11:34;101760.41;;;12.74;73.98
32181;BME280;19172;51.504;3.894;2022-12-07T06:14:20;101762.13;;;12.70;73.93
32181;BME280;19172;51.504;3.894;2022-12-07T06:16:48;101767.38;;;12.61;73.87
32181;BME280;19172;51.504;3.894;2022-12-07T06:19:16;101760.38;;;12.69;74.38
32181;BME280;19172;51.504;3.894;2022-12-07T06:21:44;101764.75;;;12.64;74.17
32181;BME280;19172;51.504;3.894;2022-12-07T06:24:14;101755.03;;;12.63;73.65
32181;BME280;19172;51.504;3.894;2022-12-07T06:26:42;101758.50;;;12.61;73.69
32181;BME280;19172;51.504;3.894;2022-12-07T06:29:10;101765.66;;;12.66;74.00
32181;BME280;19172;51.504;3.894;2022-12-07T06:31:38;101769.13;;;12.59;73.93
32181;BME280;19172;51.504;3.894;2022-12-07T06:34:10;101767.38;;;12.60;73.44
32181;BME280;19172;51.504;3.894;2022-12-07T06:36:38;101770.88;;;12.57;73.79
32181;BME280;19172;51.504;3.894;2022-12-07T06:39:06;101762.94;;;12.60;73.61
32181;BME280;19172;51.504;3.894;2022-12-07T06:41:37;101771.72;;;12.55;73.34
32181;BME280;19172;51.504;3.894;2022-12-07T06:44:06;101768.25;;;12.62;73.55
32181;BME280;19172;51.504;3.894;2022-12-07T06:46:34;101770.94;;;12.65;73.31
32181;BME280;19172;51.504;3.894;2022-12-07T06:49:05;101762.97;;;12.63;73.89
32181;BME280;19172;51.504;3.894;2022-12-07T06:51:34;101770.06;;;12.66;73.91
32181;BME280;19172;51.504;3.894;2022-12-07T06:54:04;101779.56;;;12.40;73.73
32181;BME280;19172;51.504;3.894;2022-12-07T06:56:31;101763.88;;;12.65;74.25
32181;BME280;19172;51.504;3.894;2022-12-07T06:58:59;101758.66;;;12.73;73.72
32181;BME280;19172;51.504;3.894;2022-12-07T07:01:27;101769.22;;;12.71;74.62
32181;BME280;19172;51.504;3.894;2022-12-07T07:03:55;101779.25;;;12.12;75.08
32181;BME280;19172;51.504;3.894;2022-12-07T07:06:22;101770.00;;;12.58;75.69
32181;BME280;19172;51.504;3.894;2022-12-07T07:08:50;101785.28;;;12.87;75.01
32181;BME280;19172;51.504;3.894;2022-12-07T07:11:19;101771.75;;;12.58;75.34
32181;BME280;19172;51.504;3.894;2022-12-07T07:13:46;101777.97;;;12.61;75.32
32181;BME280;19172;51.504;3.894;2022-12-07T07:16:14;101785.13;;;12.68;75.74
32181;BME280;19172;51.504;3.894;2022-12-07T07:18:42;101778.09;;;12.77;75.95
32181;BME280;19172;51.504;3.894;2022-12-07T07:21:10;101774.53;;;12.71;76.17
32181;BME280;19172;51.504;3.894;2022-12-07T07:23:37;101770.22;;;12.83;76.13
32181;BME280;19172;51.504;3.894;2022-12-07T07:26:05;101769.38;;;12.90;76.59
32181;BME280;19172;51.504;3.894;2022-12-07T07:28:33;101771.19;;;12.95;75.92
32181;BME280;19172;51.504;3.894;2022-12-07T07:31:00;101763.25;;;13.00;76.26
32181;BME280;19172;51.504;3.894;2022-12-07T07:33:28;101769.50;;;13.05;76.29
32181;BME280;19172;51.504;3.894;2022-12-07T07:35:56;101769.53;;;13.09;75.74
32181;BME280;19172;51.504;3.894;2022-12-07T07:38:24;101768.66;;;13.09;75.13
32181;BME280;19172;51.504;3.894;2022-12-07T07:40:51;101770.38;;;13.04;75.58
32181;BME280;19172;51.504;3.894;2022-12-07T07:43:19;101768.72;;;13.16;74.71
32181;BME280;19172;51.504;3.894;2022-12-07T07:45:47;101769.53;;;13.08;75.14
32181;BME280;19172;51.504;3.894;2022-12-07T07:48:15;101767.00;;;13.23;74.92
32181;BME280;19172;51.504;3.894;2022-12-07T07:50:42;101770.44;;;13.11;74.88
32181;BME280;19172;51.504;3.894;2022-12-07T07:53:10;101776.63;;;13.12;75.01
32181;BME280;19172;51.504;3.894;2022-12-07T07:55:38;101771.38;;;13.18;75.72
32181;BME280;19172;51.504;3.894;2022-12-07T07:58:06;101771.44;;;13.29;75.06
32181;BME280;19172;51.504;3.894;2022-12-07T08:00:33;101776.69;;;13.18;74.83
32181;BME280;19172;51.504;3.894;2022-12-07T08:03:01;101770.53;;;13.20;74.55
32181;BME280;19172;51.504;3.894;2022-12-07T08:05:29;101775.81;;;13.17;75.38
32181;BME280;19172;51.504;3.894;2022-12-07T08:07:57;101778.56;;;13.37;75.10
32181;BME280;19172;51.504;3.894;2022-12-07T08:10:25;101793.78;;;13.64;75.05
32181;BME280;19172;51.504;3.894;2022-12-07T08:12:53;101797.75;;;12.05;74.40
32181;BME280;19172;51.504;3.894;2022-12-07T08:15:43;101792.97;;;12.58;77.34
32181;BME280;19172;51.504;3.894;2022-12-07T08:18:12;101793.94;;;12.64;76.89
32181;BME280;19172;51.504;3.894;2022-12-07T08:20:41;101797.25;;;12.42;77.91
32181;BME280;19172;51.504;3.894;2022-12-07T08:23:10;101798.41;;;12.71;77.50
32181;BME280;19172;51.504;3.894;2022-12-07T08:25:38;101797.59;;;12.76;77.28
32181;BME280;19172;51.504;3.894;2022-12-07T08:28:07;101796.66;;;12.73;77.20
32181;BME280;19172;51.504;3.894;2022-12-07T08:30:35;101795.88;;;12.82;77.06
32181;BME280;19172;51.504;3.894;2022-12-07T08:33:02;101805.16;;;12.36;75.70
32181;BME280;19172;51.504;3.894;2022-12-07T08:35:33;101803.47;;;12.46;74.74
32181;BME280;19172;51.504;3.894;2022-12-07T08:38:02;101795.66;;;12.59;74.75
32181;BME280;19172;51.504;3.894;2022-12-07T08:40:30;101790.38;;;12.64;75.26
32181;BME280;19172;51.504;3.894;2022-12-07T08:42:58;101787.84;;;12.76;74.84
32181;BME280;19172;51.504;3.894;2022-12-07T08:45:26;101787.94;;;12.90;75.46
32181;BME280;19172;51.504;3.894;2022-12-07T08:48:07;101793.84;;;12.55;75.01
32181;BME280;19172;51.504;3.894;2022-12-07T08:50:36;101783.56;;;12.96;76.12
32181;BME280;19172;51.504;3.894;2022-12-07T08:53:06;101787.34;;;13.22;76.80
32181;BME280;19172;51.504;3.894;2022-12-07T08:55:34;101781.16;;;13.23;76.31
32181;BME280;19172;51.504;3.894;2022-12-07T08:58:02;101781.84;;;13.03;75.42
32181;BME280;19172;51.504;3.894;2022-12-07T09:00:31;101777.63;;;13.23;76.04
32181;BME280;19172;51.504;3.894;2022-12-07T09:02:58;101782.94;;;13.26;76.20
32181;BME280;19172;51.504;3.894;2022-12-07T09:05:26;101779.66;;;13.75;76.31
32181;BME280;19172;51.504;3.894;2022-12-07T09:07:57;101776.97;;;13.65;75.60
32181;BME280;19172;51.504;3.894;2022-12-07T09:10:28;101777.06;;;13.88;75.09
32181;BME280;19172;51.504;3.894;2022-12-07T09:12:55;101779.00;;;14.34;75.02
32181;BME280;19172;51.504;3.894;2022-12-07T09:15:29;101786.03;;;14.23;73.32
32181;BME280;19172;51.504;3.894;2022-12-07T09:17:57;101792.22;;;14.10;72.28
32181;BME280;19172;51.504;3.894;2022-12-07T09:20:24;101801.66;;;13.50;71.70
32181;BME280;19172;51.504;3.894;2022-12-07T09:22:54;101804.00;;;12.13;74.25
32181;BME280;19172;51.504;3.894;2022-12-07T09:25:22;101793.69;;;12.37;76.51
32181;BME280;19172;51.504;3.894;2022-12-07T09:27:59;101804.47;;;12.55;77.06
32181;BME280;19172;51.504;3.894;2022-12-07T09:30:28;101790.56;;;12.82;77.15
32181;BME280;19172;51.504;3.894;2022-12-07T09:32:56;101789.16;;;13.31;78.16
32181;BME280;19172;51.504;3.894;2022-12-07T09:35:25;101786.56;;;13.42;78.10
32181;BME280;19172;51.504;3.894;2022-12-07T09:37:53;101791.16;;;13.65;78.08
32181;BME280;19172;51.504;3.894;2022-12-07T09:40:23;101790.97;;;13.38;76.66
32181;BME280;19172;51.504;3.894;2022-12-07T09:42:55;101776.16;;;13.87;75.95
32181;BME280;19172;51.504;3.894;2022-12-07T09:45:31;101783.25;;;13.88;75.92
32181;BME280;19172;51.504;3.894;2022-12-07T09:48:03;101788.59;;;13.90;76.09
32181;BME280;19172;51.504;3.894;2022-12-07T09:50:31;101775.31;;;13.96;76.26
32181;BME280;19172;51.504;3.894;2022-12-07T09:53:10;101770.03;;;14.06;76.10
32181;BME280;19172;51.504;3.894;2022-12-07T09:55:43;101768.28;;;14.20;75.75
32181;BME280;19172;51.504;3.894;2022-12-07T09:58:21;101767.47;;;14.49;75.33
32181;BME280;19172;51.504;3.894;2022-12-07T10:00:53;101777.22;;;14.41;74.25
32181;BME280;19172;51.504;3.894;2022-12-07T10:03:23;101769.19;;;14.30;74.20
32181;BME280;19172;51.504;3.894;2022-12-07T10:05:52;101768.34;;;14.58;73.54
32181;BME280;19172;51.504;3.894;2022-12-07T10:08:20;101762.94;;;14.08;74.14
32181;BME280;19172;51.504;3.894;2022-12-07T10:10:52;101762.94;;;14.08;74.45
32181;BME280;19172;51.504;3.894;2022-12-07T10:13:38;101758.59;;;14.44;74.98
32181;BME280;19172;51.504;3.894;2022-12-07T10:16:39;101756.81;;;14.49;74.84
32181;BME280;19172;51.504;3.894;2022-12-07T10:19:40;101762.19;;;14.61;74.86
32181;BME280;19172;51.504;3.894;2022-12-07T10:22:14;101768.38;;;14.54;74.08
32181;BME280;19172;51.504;3.894;2022-12-07T10:24:46;101771.00;;;14.43;74.34
32181;BME280;19172;51.504;3.894;2022-12-07T10:27:21;101779.78;;;14.15;75.30
32181;BME280;19172;51.504;3.894;2022-12-07T10:29:51;101778.66;;;13.49;76.71
32181;BME280;19172;51.504;3.894;2022-12-07T10:34:46;101774.03;;;13.21;80.01
32181;BME280;19172;51.504;3.894;2022-12-07T10:37:20;101777.34;;;12.91;80.76
32181;BME280;19172;51.504;3.894;2022-12-07T10:39:54;101772.44;;;12.34;80.25
32181;BME280;19172;51.504;3.894;2022-12-07T10:42:25;101760.66;;;13.07;81.13
32181;BME280;19172;51.504;3.894;2022-12-07T10:45:15;101749.81;;;12.76;81.61
32181;BME280;19172;51.504;3.894;2022-12-07T10:58:34;101745.00;;;13.54;80.02
32181;BME280;19172;51.504;3.894;2022-12-07T11:09:55;101714.25;;;14.38;77.33
32181;BME280;19172;51.504;3.894;2022-12-07T11:15:42;101711.56;;;14.68;76.09
32181;BME280;19172;51.504;3.894;2022-12-07T11:21:22;101705.28;;;15.16;74.18
32181;BME280;19172;51.504;3.894;2022-12-07T11:29:25;101694.63;;;15.24;69.82
32181;BME280;19172;51.504;3.894;2022-12-07T11:37:34;101696.28;;;15.45;68.25
32181;BME280;19172;51.504;3.894;2022-12-07T11:40:29;101697.16;;;15.66;68.53
32181;BME280;19172;51.504;3.894;2022-12-07T11:43:04;101696.44;;;15.05;68.06
32181;BME280;19172;51.504;3.894;2022-12-07T11:45:37;101700.03;;;14.84;69.53
32181;BME280;19172;51.504;3.894;2022-12-07T11:51:00;101701.56;;;13.42;74.28
32181;BME280;19172;51.504;3.894;2022-12-07T11:53:38;101694.44;;;13.33;76.49
32181;BME280;19172;51.504;3.894;2022-12-07T11:56:16;101689.19;;;13.45;77.95
32181;BME280;19172;51.504;3.894;2022-12-07T11:58:59;101680.34;;;13.51;79.08
32181;BME280;19172;51.504;3.894;2022-12-07T12:01:55;101674.13;;;13.44;79.60
32181;BME280;19172;51.504;3.894;2022-12-07T12:04:50;101675.66;;;13.06;79.23
32181;BME280;19172;51.504;3.894;2022-12-07T12:07:24;101664.91;;;12.80;79.34
32181;BME280;19172;51.504;3.894;2022-12-07T12:10:38;101660.25;;;12.47;80.42
32181;BME280;19172;51.504;3.894;2022-12-07T12:22:37;101644.78;;;13.11;77.28
32181;BME280;19172;51.504;3.894;2022-12-07T12:27:50;101647.88;;;12.49;75.00
32181;BME280;19172;51.504;3.894;2022-12-07T12:33:03;101649.06;;;12.92;76.54
32181;BME280;19172;51.504;3.894;2022-12-07T12:35:33;101658.81;;;12.95;77.54
32181;BME280;19172;51.504;3.894;2022-12-07T12:38:32;101659.16;;;12.23;77.62
32181;BME280;19172;51.504;3.894;2022-12-07T12:41:03;101657.63;;;12.47;78.99
32181;BME280;19172;51.504;3.894;2022-12-07T12:43:50;101662.72;;;12.26;79.80
32181;BME280;19172;51.504;3.894;2022-12-07T12:51:48;101638.56;;;13.12;79.62
32181;BME280;19172;51.504;3.894;2022-12-07T12:54:32;101633.34;;;13.32;79.18
32181;BME280;19172;51.504;3.894;2022-12-07T13:15:52;101625.47;;;13.65;74.72
32181;BME280;19172;51.504;3.894;2022-12-07T13:21:02;101622.41;;;12.77;75.80
32181;BME280;19172;51.504;3.894;2022-12-07T13:28:54;101609.31;;;11.82;82.70
32181;BME280;19172;51.504;3.894;2022-12-07T13:31:34;101604.19;;;12.03;84.02
32181;BME280;19172;51.504;3.894;2022-12-07T13:34:26;101600.69;;;12.03;84.71
32181;BME280;19172;51.504;3.894;2022-12-07T13:36:52;101586.78;;;12.39;85.07
32181;BME280;19172;51.504;3.894;2022-12-07T13:39:24;101580.72;;;12.53;83.70
32181;BME280;19172;51.504;3.894;2022-12-07T13:41:55;101578.38;;;13.15;81.88
32181;BME280;19172;51.504;3.894;2022-12-07T13:44:26;101585.25;;;12.72;79.64
32181;BME280;19172;51.504;3.894;2022-12-07T13:49:28;101584.97;;;12.30;78.35
32181;BME280;19172;51.504;3.894;2022-12-07T13:52:17;101582.75;;;13.01;77.63
32181;BME280;19172;51.504;3.894;2022-12-07T13:54:48;101589.03;;;13.17;76.50
32181;BME280;19172;51.504;3.894;2022-12-07T13:57:17;101572.31;;;13.69;75.83
32181;BME280;19172;51.504;3.894;2022-12-07T13:59:45;101566.84;;;13.12;74.20
32181;BME280;19172;51.504;3.894;2022-12-07T14:02:34;101566.13;;;13.83;73.37
32181;BME280;19172;51.504;3.894;2022-12-07T14:05:30;101567.03;;;13.83;72.08
32181;BME280;19172;51.504;3.894;2022-12-07T14:08:00;101579.41;;;13.69;70.92
32181;BME280;19172;51.504;3.894;2022-12-07T14:10:41;101590.00;;;13.45;71.08
32181;BME280;19172;51.504;3.894;2022-12-07T14:13:39;101581.03;;;13.11;71.62
32181;BME280;19172;51.504;3.894;2022-12-07T14:16:24;101579.31;;;13.28;72.98
32181;BME280;19172;51.504;3.894;2022-12-07T14:18:54;101571.41;;;13.46;74.48
32181;BME280;19172;51.504;3.894;2022-12-07T14:21:25;101569.44;;;13.03;75.22
32181;BME280;19172;51.504;3.894;2022-12-07T14:24:17;101564.16;;;13.04;76.76
32181;BME280;19172;51.504;3.894;2022-12-07T14:26:48;101561.63;;;13.35;77.53
32181;BME280;19172;51.504;3.894;2022-12-07T14:31:54;101556.34;;;13.48;78.03
32181;BME280;19172;51.504;3.894;2022-12-07T14:34:22;101555.47;;;13.46;78.44
32181;BME280;19172;51.504;3.894;2022-12-07T14:36:50;101554.59;;;13.61;78.06
32181;BME280;19172;51.504;3.894;2022-12-07T14:39:18;101548.28;;;13.15;78.11
32181;BME280;19172;51.504;3.894;2022-12-07T14:41:46;101542.00;;;12.89;77.43
32181;BME280;19172;51.504;3.894;2022-12-07T14:44:22;101559.81;;;13.17;79.06
32181;BME280;19172;51.504;3.894;2022-12-07T14:46:54;101563.50;;;11.97;78.84
32181;BME280;19172;51.504;3.894;2022-12-07T14:49:42;101558.13;;;11.86;81.31
32181;BME280;19172;51.504;3.894;2022-12-07T14:52:19;101560.97;;;12.09;82.77
32181;BME280;19172;51.504;3.894;2022-12-07T14:55:16;101553.97;;;12.20;83.75
32181;BME280;19172;51.504;3.894;2022-12-07T14:57:45;101543.22;;;12.00;84.30
32181;BME280;19172;51.504;3.894;2022-12-07T15:00:15;101529.31;;;12.36;83.55
32181;BME280;19172;51.504;3.894;2022-12-07T15:02:47;101535.47;;;12.32;83.54
32181;BME280;19172;51.504;3.894;2022-12-07T15:05:16;101523.31;;;12.70;83.09
32181;BME280;19172;51.504;3.894;2022-12-07T15:07:46;101523.41;;;12.90;82.82
32181;BME280;19172;51.504;3.894;2022-12-07T15:10:20;101531.50;;;13.14;81.47
32181;BME280;19172;51.504;3.894;2022-12-07T15:12:51;101540.31;;;13.15;81.07
32181;BME280;19172;51.504;3.894;2022-12-07T15:15:19;101538.44;;;12.85;79.98
32181;BME280;19172;51.504;3.894;2022-12-07T15:17:46;101536.66;;;12.86;79.77
32181;BME280;19172;51.504;3.894;2022-12-07T15:20:15;101538.47;;;13.02;79.92